createdAt,value
2018-10-12T00:02:08.908Z,100257.64
2018-10-12T00:06:13.954Z,100258.30
2018-10-12T00:10:19.005Z,100265.97
2018-10-12T00:14:24.022Z,100260.59
2018-10-12T00:18:29.084Z,100273.27
2018-10-12T00:22:34.142Z,100277.92
2018-10-12T00:26:39.441Z,100281.87
2018-10-12T00:30:44.751Z,100289.53
2018-10-12T00:34:49.847Z,100297.34
2018-10-12T00:38:54.960Z,100307.52
2018-10-12T00:42:59.985Z,100304.85
2018-10-12T00:47:05.017Z,100302.94
2018-10-12T00:51:10.054Z,100307.12
2018-10-12T00:55:15.081Z,100317.63
2018-10-12T00:59:20.117Z,100316.30
2018-10-12T01:03:25.141Z,100312.45
2018-10-12T01:07:30.185Z,100303.88
2018-10-12T01:11:35.251Z,100292.41
2018-10-12T01:15:40.284Z,100293.02
2018-10-12T01:19:45.342Z,100298.38
2018-10-12T01:23:50.387Z,100315.91
2018-10-12T01:27:55.452Z,100315.91
2018-10-12T01:32:00.500Z,100317.81
2018-10-12T01:36:05.615Z,100315.88
2018-10-12T01:40:11.552Z,100312.84
2018-10-12T01:44:16.618Z,100320.27
2018-10-12T01:48:21.677Z,100323.11
2018-10-12T01:52:26.758Z,100322.58
2018-10-12T01:56:31.802Z,100324.59
2018-10-12T02:00:36.838Z,100320.02
2018-10-12T02:04:41.877Z,100326.83
2018-10-12T02:08:46.929Z,100338.00
2018-10-12T02:12:51.981Z,100343.86
2018-10-12T02:16:57.027Z,100358.83
2018-10-12T02:21:02.527Z,100359.31
2018-10-12T02:25:07.924Z,100365.48
2018-10-12T02:29:13.019Z,100362.13
2018-10-12T02:33:18.053Z,100375.23
2018-10-12T02:37:23.062Z,100387.44
2018-10-12T02:41:29.219Z,100386.13
2018-10-12T02:45:34.226Z,100391.67
2018-10-12T02:49:39.255Z,100399.78
2018-10-12T02:53:44.301Z,100396.64
2018-10-12T02:57:49.319Z,100403.60
2018-10-12T03:01:54.338Z,100404.95
2018-10-12T03:05:59.474Z,100400.52
2018-10-12T03:10:04.537Z,100402.52
2018-10-12T03:14:09.573Z,100407.05
2018-10-12T03:18:14.599Z,100403.70
2018-10-12T03:22:19.646Z,100414.88
2018-10-12T03:26:24.709Z,100430.04
2018-10-12T03:30:29.767Z,100430.97
2018-10-12T03:34:34.929Z,100445.28
2018-10-12T03:38:40.006Z,100434.95
2018-10-12T03:42:45.057Z,100445.70
2018-10-12T03:46:50.101Z,100444.25
2018-10-12T03:50:55.164Z,100448.80
2018-10-12T03:55:00.205Z,100459.90
2018-10-12T03:59:05.254Z,100461.70
2018-10-12T04:03:10.328Z,100467.73
2018-10-12T04:07:15.403Z,100459.91
2018-10-12T04:11:20.469Z,100468.09
2018-10-12T04:15:25.541Z,100477.66
2018-10-12T04:19:30.590Z,100483.94
2018-10-12T04:23:35.657Z,100490.44
2018-10-12T04:27:40.713Z,100479.45
2018-10-12T04:31:45.743Z,100491.77
2018-10-12T04:35:50.753Z,100486.03
2018-10-12T04:40:20.543Z,100495.02
2018-10-12T04:44:25.659Z,100498.66
2018-10-12T04:48:30.774Z,100501.97
2018-10-12T04:52:35.837Z,100513.15
2018-10-12T04:56:41.142Z,100525.91
2018-10-12T05:00:46.423Z,100524.25
2018-10-12T05:04:51.538Z,100532.86
2018-10-12T05:08:56.671Z,100532.04
2018-10-12T05:13:01.854Z,100540.42
2018-10-12T05:17:08.935Z,100547.44
2018-10-12T05:21:14.030Z,100541.09
2018-10-12T05:25:19.089Z,100555.47
2018-10-12T05:29:24.154Z,100560.66
2018-10-12T05:33:29.193Z,100566.42
2018-10-12T05:37:34.205Z,100556.15
2018-10-12T05:41:39.270Z,100564.97
2018-10-12T05:45:44.551Z,100571.53
2018-10-12T05:50:00.487Z,100571.59
2018-10-12T05:54:05.927Z,100585.00
2018-10-12T05:58:11.045Z,100598.94
2018-10-12T06:02:16.069Z,100603.44
2018-10-12T06:06:21.444Z,100606.86
2018-10-12T06:10:28.505Z,100614.52
2018-10-12T06:14:33.537Z,100621.34
2018-10-12T06:18:38.597Z,100619.92
2018-10-12T06:22:43.636Z,100618.43
2018-10-12T06:26:48.796Z,100614.16
2018-10-12T06:30:53.775Z,100633.93
2018-10-12T06:34:58.838Z,100648.67
2018-10-12T06:39:04.791Z,100672.95
2018-10-12T06:43:09.865Z,100676.56
2018-10-12T06:47:14.961Z,100679.94
2018-10-12T06:51:20.939Z,100677.19
2018-10-12T06:55:25.985Z,100689.08
2018-10-12T06:59:31.042Z,100686.52
2018-10-12T07:03:36.102Z,100699.11
2018-10-12T07:07:41.146Z,100707.93
2018-10-12T07:11:46.190Z,100697.79
2018-10-12T07:15:51.266Z,100708.91
2018-10-12T07:19:56.343Z,100726.77
2018-10-12T07:24:01.409Z,100721.08
2018-10-12T07:28:06.525Z,100726.52
2018-10-12T07:32:11.534Z,100726.66
2018-10-12T07:36:16.584Z,100728.80
2018-10-12T07:40:21.609Z,100723.31
2018-10-12T07:44:26.790Z,100725.53
2018-10-12T07:48:31.830Z,100720.23
2018-10-12T07:52:36.880Z,100725.77
2018-10-12T07:56:41.919Z,100730.83
2018-10-12T08:00:47.082Z,100743.14
2018-10-12T08:04:52.240Z,100744.03
2018-10-12T08:08:57.298Z,100744.38
2018-10-12T08:13:02.377Z,100734.09
2018-10-12T08:17:08.127Z,100743.84
2018-10-12T08:21:13.513Z,100752.27
2018-10-12T08:25:18.708Z,100761.83
2018-10-12T08:29:25.950Z,100759.88
2018-10-12T08:33:31.034Z,100764.49
2018-10-12T08:37:38.105Z,100763.91
2018-10-12T08:41:43.220Z,100764.45
2018-10-12T08:45:48.291Z,100763.75
2018-10-12T08:49:53.301Z,100767.12
2018-10-12T08:53:58.345Z,100770.95
2018-10-12T08:58:03.371Z,100772.63
2018-10-12T09:02:08.558Z,100775.38
2018-10-12T09:06:13.907Z,100785.43
2018-10-12T09:10:18.993Z,100790.44
2018-10-12T09:14:24.082Z,100785.93
2018-10-12T09:18:29.132Z,100779.47
2018-10-12T09:22:34.250Z,100784.42
2018-10-12T09:26:39.323Z,100776.37
2018-10-12T09:30:44.377Z,100772.16
2018-10-12T09:34:49.455Z,100793.44
2018-10-12T09:38:54.523Z,100790.54
2018-10-12T09:42:59.581Z,100783.03
2018-10-12T09:47:04.645Z,100786.25
2018-10-12T09:51:09.793Z,100783.81
2018-10-12T09:55:14.839Z,100776.56
2018-10-12T09:59:19.880Z,100773.12
2018-10-12T10:03:30.143Z,100779.44
2018-10-12T10:07:35.289Z,100778.84
2018-10-12T10:11:40.205Z,100769.30
2018-10-12T10:15:45.238Z,100767.72
2018-10-12T10:19:50.299Z,100773.88
2018-10-12T10:23:55.360Z,100765.48
2018-10-12T10:28:00.427Z,100766.80
2018-10-12T10:32:05.513Z,100766.84
2018-10-12T10:36:10.562Z,100766.56
2018-10-12T10:40:15.803Z,100765.32
2018-10-12T10:44:20.856Z,100760.41
2018-10-12T10:48:25.955Z,100745.09
2018-10-12T10:52:30.998Z,100740.20
2018-10-12T10:56:36.053Z,100746.63
2018-10-12T11:00:41.256Z,100739.84
2018-10-12T11:04:46.285Z,100739.03
2018-10-12T11:08:51.329Z,100735.16
2018-10-12T11:12:56.467Z,100730.09
2018-10-12T11:17:01.437Z,100727.64
2018-10-12T11:21:07.310Z,100721.98
2018-10-12T11:25:12.357Z,100715.50
2018-10-12T11:29:17.417Z,100714.92
2018-10-12T11:33:23.335Z,100718.14
2018-10-12T11:41:45.763Z,100701.48
2018-10-12T11:45:50.821Z,100704.23
2018-10-12T11:49:55.861Z,100700.88
2018-10-12T11:54:00.967Z,100688.84
2018-10-12T11:58:06.314Z,100692.55
2018-10-12T12:02:11.403Z,100693.56
2018-10-12T12:06:16.418Z,100697.31
2018-10-12T12:10:21.503Z,100689.78
2018-10-12T12:14:26.898Z,100688.47
2018-10-12T12:18:31.985Z,100673.25
2018-10-12T12:22:37.045Z,100669.90
2018-10-12T12:26:42.114Z,100662.34
2018-10-12T12:30:48.250Z,100662.23
2018-10-12T12:34:53.378Z,100663.46
2018-10-12T12:38:58.408Z,100664.09
2018-10-12T12:43:03.487Z,100658.81
2018-10-12T12:47:08.555Z,100658.48
2018-10-12T12:51:14.067Z,100658.58
2018-10-12T12:55:19.130Z,100655.84
2018-10-12T12:59:24.191Z,100660.33
2018-10-12T13:03:29.261Z,100648.67
2018-10-12T13:07:34.390Z,100658.05
2018-10-12T13:11:39.426Z,100657.95
2018-10-12T13:15:44.575Z,100660.80
2018-10-12T13:19:49.711Z,100661.13
2018-10-12T13:23:54.937Z,100662.22
2018-10-12T13:28:00.093Z,100661.20
2018-10-12T13:32:05.457Z,100658.62
2018-10-12T13:36:10.436Z,100662.67
2018-10-12T13:40:15.511Z,100661.58
2018-10-12T13:44:20.589Z,100666.89
2018-10-12T13:48:25.667Z,100659.73
2018-10-12T13:52:30.756Z,100668.34
2018-10-12T13:56:35.841Z,100665.31
2018-10-12T14:00:40.899Z,100661.90
2018-10-12T14:04:45.987Z,100664.29
2018-10-12T14:08:51.057Z,100659.51
2018-10-12T14:12:56.090Z,100665.95
2018-10-12T14:17:01.163Z,100661.18
2018-10-12T14:21:06.311Z,100654.41
2018-10-12T14:25:11.510Z,100659.09
2018-10-12T14:29:16.502Z,100662.55
2018-10-12T14:33:21.563Z,100657.19
2018-10-12T14:37:26.651Z,100664.64
2018-10-12T14:41:31.754Z,100659.62
2018-10-12T14:45:37.064Z,100658.56
2018-10-12T14:49:42.330Z,100665.30
2018-10-12T14:53:47.659Z,100661.78
2018-10-12T14:57:52.894Z,100666.98
2018-10-12T15:01:58.856Z,100668.70
2018-10-12T15:06:04.193Z,100673.50
2018-10-12T15:10:09.808Z,100667.20
2018-10-12T15:14:14.947Z,100668.70
2018-10-12T15:18:20.105Z,100670.23
2018-10-12T15:22:25.295Z,100672.45
2018-10-12T15:26:30.671Z,100674.34
2018-10-12T15:30:36.027Z,100674.63
2018-10-12T15:34:41.569Z,100680.27
2018-10-12T15:38:48.272Z,100680.36
2018-10-12T15:42:53.627Z,100679.55
2018-10-12T15:46:58.827Z,100684.95
2018-10-12T15:51:05.328Z,100684.52
2018-10-12T15:55:11.467Z,100681.10
2018-10-12T15:59:17.240Z,100679.30
2018-10-12T16:03:22.698Z,100691.27
2018-10-12T16:07:28.031Z,100691.95
2018-10-12T16:11:33.438Z,100689.64
2018-10-12T16:15:38.783Z,100690.45
2018-10-12T16:19:43.918Z,100689.46
2018-10-12T16:23:51.639Z,100692.88
2018-10-12T16:27:56.714Z,100701.78
2018-10-12T16:32:01.759Z,100699.78
2018-10-12T16:36:06.833Z,100695.94
2018-10-12T16:40:12.817Z,100699.11
2018-10-12T16:44:18.100Z,100704.86
2018-10-12T16:48:23.408Z,100714.14
2018-10-12T16:52:28.540Z,100712.23
2018-10-12T16:56:33.766Z,100719.92
2018-10-12T17:00:39.103Z,100727.61
2018-10-12T17:04:45.086Z,100722.38
2018-10-12T17:08:50.208Z,100726.70
2018-10-12T17:12:55.291Z,100726.17
2018-10-12T17:17:00.417Z,100731.96
2018-10-12T17:21:05.470Z,100729.42
2018-10-12T17:25:10.537Z,100735.22
2018-10-12T17:29:15.570Z,100735.36
2018-10-12T17:33:20.674Z,100739.23
2018-10-12T17:37:25.783Z,100747.72
2018-10-12T17:41:30.862Z,100750.95
2018-10-12T17:45:35.935Z,100758.03
2018-10-12T17:49:41.152Z,100753.80
2018-10-12T17:53:46.285Z,100760.06
2018-10-12T17:57:51.475Z,100756.98
2018-10-12T18:01:56.896Z,100763.86
2018-10-12T18:06:03.145Z,100760.95
2018-10-12T18:10:10.034Z,100762.36
2018-10-12T18:14:15.429Z,100762.70
2018-10-12T18:18:20.706Z,100769.97
2018-10-12T18:22:25.900Z,100776.39
2018-10-12T18:26:31.176Z,100772.22
2018-10-12T18:30:36.436Z,100776.70
2018-10-12T18:34:41.567Z,100770.14
2018-10-12T18:38:46.802Z,100773.35
2018-10-12T18:42:51.932Z,100777.09
2018-10-12T18:46:56.966Z,100778.11
2018-10-12T18:51:02.099Z,100778.66
2018-10-12T18:55:07.185Z,100779.88
2018-10-12T18:59:12.290Z,100786.04
2018-10-12T19:03:17.374Z,100785.73
2018-10-12T19:07:22.687Z,100780.55
2018-10-12T19:11:27.814Z,100789.95
2018-10-12T19:15:33.030Z,100786.30
2018-10-12T19:19:38.177Z,100787.30
2018-10-12T19:23:43.238Z,100789.50
2018-10-12T19:27:48.211Z,100794.41
2018-10-12T19:31:53.396Z,100807.54
2018-10-12T19:35:58.415Z,100811.56
2018-10-12T19:40:03.459Z,100809.05
2018-10-12T19:44:09.385Z,100815.61
2018-10-12T19:48:14.613Z,100815.27
2018-10-12T19:52:19.705Z,100818.28
2018-10-12T19:56:24.947Z,100823.94
2018-10-12T20:00:29.998Z,100818.12
2018-10-12T20:04:35.127Z,100822.77
2018-10-12T20:08:40.251Z,100824.95
2018-10-12T20:12:45.350Z,100833.67
2018-10-12T20:16:50.438Z,100837.85
2018-10-12T20:20:55.502Z,100835.97
2018-10-12T20:25:00.594Z,100830.77
2018-10-12T20:29:05.756Z,100837.64
2018-10-12T20:33:10.789Z,100841.97
2018-10-12T20:37:15.802Z,100839.09
2018-10-12T20:41:20.834Z,100835.72
2018-10-12T20:45:25.888Z,100840.52
2018-10-12T20:49:30.925Z,100834.97
2018-10-12T20:53:35.971Z,100833.55
2018-10-12T20:57:47.998Z,100834.70
2018-10-12T21:01:53.059Z,100844.53
2018-10-12T21:05:58.156Z,100837.98
2018-10-12T21:10:03.254Z,100838.20
2018-10-12T21:14:08.349Z,100842.84
2018-10-12T21:18:13.386Z,100847.84
2018-10-12T21:22:18.463Z,100842.62
2018-10-12T21:26:23.518Z,100845.10
2018-10-12T21:30:28.806Z,100841.22
2018-10-12T21:34:33.913Z,100838.71
2018-10-12T21:38:39.044Z,100837.51
2018-10-12T21:42:44.098Z,100844.97
2018-10-12T21:46:49.311Z,100845.91
2018-10-12T21:50:55.392Z,100853.70
2018-10-12T21:55:00.447Z,100843.78
2018-10-12T21:59:05.530Z,100846.30
2018-10-12T22:03:10.609Z,100840.95
2018-10-12T22:07:15.750Z,100832.68
2018-10-12T22:11:20.829Z,100824.14
2018-10-12T22:15:25.866Z,100825.27
2018-10-12T22:19:30.930Z,100822.43
2018-10-12T22:23:36.376Z,100816.36
2018-10-12T22:27:41.469Z,100813.11
2018-10-12T22:31:46.540Z,100817.77
2018-10-12T22:35:51.644Z,100811.20
2018-10-12T22:39:56.794Z,100804.19
2018-10-12T22:44:01.983Z,100801.92
2018-10-12T22:48:07.172Z,100798.27
2018-10-12T22:52:12.287Z,100804.42
2018-10-12T22:56:17.398Z,100804.05
2018-10-12T23:00:22.560Z,100796.47
2018-10-12T23:04:27.739Z,100795.45
2018-10-12T23:08:32.894Z,100793.11
2018-10-12T23:12:38.043Z,100795.04
2018-10-12T23:16:43.158Z,100794.38
2018-10-12T23:20:49.303Z,100795.72
2018-10-12T23:24:54.363Z,100799.56
2018-10-12T23:28:59.703Z,100790.06
2018-10-12T23:33:21.870Z,100786.76
2018-10-12T23:37:26.937Z,100787.13
2018-10-12T23:41:31.963Z,100788.47
2018-10-12T23:45:36.996Z,100786.66
2018-10-12T23:49:42.056Z,100787.29
2018-10-12T23:53:47.087Z,100789.63
2018-10-12T23:57:52.164Z,100787.29
